Terminal Aerodrome Forecast
Issued by NWS

Home | Current Version | Previous Version | Text Only | Print | Product List | Glossary On
Versions: 1 2 3 4 5 6 7 8 9 10 11 12 13 14 15 16 17 18 19
413
FTUS45 KRIW 251948 AAB
TAFRKS
TAF AMD
KRKS 251948Z 2520/2618 22015G25KT P6SM TSRA SCT030CB BKN090
      TEMPO 2520/2522 VRB35G45KT 2SM +TSRAGS OVC022CB
     FM252200 25016G25KT 6SM -SHRA VCTS SCT040 BKN060CB BKN100
     FM260200 22011KT P6SM VCSH SCT060 BKN100
     FM260400 23007KT P6SM BKN060=

USA.gov is the U.S. government's official web portal to all federal, state and local government web resources and services.